Time,TemperatureF,DewpointF,PressureIn,WindDirection,WindDirectionDegrees,WindSpeedMPH,WindSpeedGustMPH,Humidity,HourlyPrecipIn,Conditions,Clouds,dailyrainin,SolarRadiationWatts/m^2,SoftwareType,DateUTC
2013-10-02 00:00:00,58.9,56.0,30.08,WSW,255,0.0,0.0,90,0.00,SCT,SCT,0.00,0.0,WeatherDisplay:10.37,2013-10-02 04:00:00,
2013-10-02 00:05:00,58.7,55.5,30.08,WSW,255,0.0,0.0,89,0.00,SCT,SCT,0.00,0.0,WeatherDisplay:10.37,2013-10-02 04:05:00,
2013-10-02 00:10:00,58.6,55.4,30.08,WSW,255,0.0,0.0,89,0.00,SCT,SCT,0.00,0.0,WeatherDisplay:10.37,2013-10-02 04:10:00,
2013-10-02 00:15:00,58.5,55.2,30.08,WSW,254,0.0,0.0,89,0.00,SCT,SCT,0.00,0.0,WeatherDisplay:10.37,2013-10-02 04:15:00,
2013-10-02 00:20:00,58.2,55.0,30.08,WSW,255,0.0,0.0,89,0.00,SCT,SCT,0.00,0.0,WeatherDisplay:10.37,2013-10-02 04:20:00,
2013-10-02 00:25:00,58.1,55.2,30.08,WSW,255,0.0,1.0,90,0.00,SCT,SCT,0.00,0.0,WeatherDisplay:10.37,2013-10-02 04:25:00,
2013-10-02 00:30:00,58.1,55.2,30.08,WSW,255,0.0,0.0,90,0.00,SCT,SCT,0.00,0.0,WeatherDisplay:10.37,2013-10-02 04:30:00,
2013-10-02 00:35:00,58.1,55.2,30.08,WSW,255,0.0,0.0,90,0.00,SCT,SCT,0.00,0.0,WeatherDisplay:10.37,2013-10-02 04:35:00,
2013-10-02 00:40:00,58.1,55.2,30.08,WSW,255,0.0,0.0,90,0.00,SCT,SCT,0.00,0.0,WeatherDisplay:10.37,2013-10-02 04:40:00,
2013-10-02 00:45:00,57.9,55.0,30.08,WSW,255,0.0,0.0,90,0.00,SCT,SCT,0.00,0.0,WeatherDisplay:10.37,2013-10-02 04:45:00,
2013-10-02 00:50:00,57.8,54.9,30.08,WSW,254,0.0,0.0,90,0.00,SCT,SCT,0.00,0.0,WeatherDisplay:10.37,2013-10-02 04:50:00,
2013-10-02 00:55:00,57.7,54.8,30.08,WSW,255,0.0,0.0,90,0.00,SCT,SCT,0.00,0.0,WeatherDisplay:10.37,2013-10-02 04:55:00,
2013-10-02 01:00:00,57.6,54.7,30.08,WSW,255,0.0,0.0,90,0.00,SCT,SCT,0.00,0.0,WeatherDisplay:10.37,2013-10-02 05:00:00,
2013-10-02 01:05:00,57.5,54.6,30.08,WSW,255,0.0,0.0,90,0.00,SCT,SCT,0.00,0.0,WeatherDisplay:10.37,2013-10-02 05:05:00,
2013-10-02 01:10:00,57.4,54.5,30.08,WSW,255,0.0,0.0,90,0.00,SCT,SCT,0.00,0.0,WeatherDisplay:10.37,2013-10-02 05:10:00,
2013-10-02 01:15:00,57.3,54.4,30.08,WSW,255,0.0,0.0,90,0.00,SCT,SCT,0.00,0.0,WeatherDisplay:10.37,2013-10-02 05:15:00,
2013-10-02 01:20:00,57.2,54.3,30.08,WSW,255,0.0,0.0,90,0.00,SCT,SCT,0.00,0.0,WeatherDisplay:10.37,2013-10-02 05:20:00,
2013-10-02 01:25:00,57.1,54.2,30.08,WSW,255,0.0,0.0,90,0.00,SCT,SCT,0.00,0.0,WeatherDisplay:10.37,2013-10-02 05:25:00,
2013-10-02 01:30:00,57.0,54.1,30.08,WSW,254,0.0,0.0,90,0.00,SCT,SCT,0.00,0.0,WeatherDisplay:10.37,2013-10-02 05:30:00,
2013-10-02 01:35:00,56.9,54.0,30.08,WSW,255,0.0,0.0,90,0.00,SCT,SCT,0.00,0.0,WeatherDisplay:10.37,2013-10-02 05:35:00,
2013-10-02 01:40:00,56.8,53.9,30.08,WSW,255,0.0,0.0,90,0.00,SCT,SCT,0.00,0.0,WeatherDisplay:10.37,2013-10-02 05:40:00,
2013-10-02 01:45:00,56.8,53.9,30.08,WSW,255,0.0,0.0,90,0.00,SCT,SCT,0.00,0.0,WeatherDisplay:10.37,2013-10-02 05:45:00,
2013-10-02 01:50:00,56.7,53.8,30.09,WSW,255,0.0,0.0,90,0.00,SCT,SCT,0.00,0.0,WeatherDisplay:10.37,2013-10-02 05:50:00,
2013-10-02 01:55:00,56.6,53.7,30.09,WSW,255,0.0,0.0,90,0.00,SCT,SCT,0.00,0.0,WeatherDisplay:10.37,2013-10-02 05:55:00,
2013-10-02 02:00:00,56.6,53.7,30.09,WSW,255,0.0,0.0,90,0.00,SCT,SCT,0.00,0.0,WeatherDisplay:10.37,2013-10-02 06:00:00,
2013-10-02 02:05:00,56.5,53.6,30.09,WSW,254,0.0,0.0,90,0.00,SCT,SCT,0.00,0.0,WeatherDisplay:10.37,2013-10-02 06:05:00,
2013-10-02 02:10:00,56.4,53.5,30.08,WSW,255,0.0,0.0,90,0.00,SCT,SCT,0.00,0.0,WeatherDisplay:10.37,2013-10-02 06:10:00,
2013-10-02 02:15:00,56.3,53.4,30.08,WSW,255,0.0,0.0,90,0.00,SCT,SCT,0.00,0.0,WeatherDisplay:10.37,2013-10-02 06:15:00,
2013-10-02 02:20:00,56.1,53.2,30.08,WSW,255,0.0,0.0,90,0.00,SCT,SCT,0.00,0.0,WeatherDisplay:10.37,2013-10-02 06:20:00,
2013-10-02 02:25:00,56.0,53.1,30.08,WSW,255,0.0,0.0,90,0.00,SCT,SCT,0.00,0.0,WeatherDisplay:10.37,2013-10-02 06:25:00,
2013-10-02 02:30:00,55.9,53.0,30.08,WSW,255,0.0,0.0,90,0.00,SCT,SCT,0.00,0.0,WeatherDisplay:10.37,2013-10-02 06:30:00,
2013-10-02 02:35:00,55.8,52.9,30.09,WSW,255,0.0,0.0,90,0.00,SCT,SCT,0.00,0.0,WeatherDisplay:10.37,2013-10-02 06:35:00,
2013-10-02 02:40:00,55.7,52.8,30.09,WSW,255,0.0,0.0,90,0.00,SCT,SCT,0.00,0.0,WeatherDisplay:10.37,2013-10-02 06:40:00,
2013-10-02 02:45:00,55.6,52.7,30.08,WSW,255,0.0,0.0,90,0.00,SCT,SCT,0.00,0.0,WeatherDisplay:10.37,2013-10-02 06:45:00,
2013-10-02 02:50:00,55.5,52.6,30.08,WSW,255,0.0,1.0,90,0.00,SCT,SCT,0.00,0.0,WeatherDisplay:10.37,2013-10-02 06:50:00,
2013-10-02 02:55:00,55.4,52.5,30.08,WSW,255,0.0,0.0,90,0.00,SCT,SCT,0.00,0.0,WeatherDisplay:10.37,2013-10-02 06:55:00,
2013-10-02 03:00:00,55.3,52.5,30.08,WSW,255,0.0,0.0,90,0.00,SCT,SCT,0.00,0.0,WeatherDisplay:10.37,2013-10-02 07:00:00,
2013-10-02 03:05:00,55.3,52.4,30.08,WSW,255,0.0,0.0,90,0.00,SCT,SCT,0.00,0.0,WeatherDisplay:10.37,2013-10-02 07:05:00,
2013-10-02 03:10:00,55.2,52.3,30.08,WSW,255,0.0,0.0,90,0.00,SCT,SCT,0.00,0.0,WeatherDisplay:10.37,2013-10-02 07:10:00,
2013-10-02 03:15:00,55.1,52.2,30.08,WSW,255,0.0,0.0,90,0.00,SCT,SCT,0.00,0.0,WeatherDisplay:10.37,2013-10-02 07:15:00,
2013-10-02 03:20:00,55.0,52.1,30.08,WSW,255,0.0,0.0,90,0.00,SCT,SCT,0.00,0.0,WeatherDisplay:10.37,2013-10-02 07:20:00,
2013-10-02 03:25:00,54.9,52.0,30.08,WSW,255,0.0,0.0,90,0.00,SCT,SCT,0.00,0.0,WeatherDisplay:10.37,2013-10-02 07:25:00,
2013-10-02 03:30:00,54.9,52.0,30.08,WSW,255,0.0,0.0,90,0.00,SCT,SCT,0.00,0.0,WeatherDisplay:10.37,2013-10-02 07:30:00,
2013-10-02 03:35:00,54.8,51.9,30.08,WSW,255,0.0,0.0,90,0.00,SCT,SCT,0.00,0.0,WeatherDisplay:10.37,2013-10-02 07:35:00,
2013-10-02 03:40:00,54.7,51.8,30.08,WSW,255,0.0,0.0,90,0.00,SCT,SCT,0.00,0.0,WeatherDisplay:10.37,2013-10-02 07:40:00,
2013-10-02 03:45:00,54.6,51.7,30.08,WSW,255,0.0,0.0,90,0.00,SCT,SCT,0.00,0.0,WeatherDisplay:10.37,2013-10-02 07:45:00,
2013-10-02 03:50:00,54.6,51.7,30.07,WSW,255,0.0,0.0,90,0.00,SCT,SCT,0.00,0.0,WeatherDisplay:10.37,2013-10-02 07:50:00,
2013-10-02 03:55:00,54.5,51.6,30.08,WSW,255,0.0,0.0,90,0.00,SCT,SCT,0.00,0.0,WeatherDisplay:10.37,2013-10-02 07:55:00,
2013-10-02 04:00:00,54.5,51.6,30.08,WSW,255,0.0,0.0,90,0.00,SCT,SCT,0.00,0.0,WeatherDisplay:10.37,2013-10-02 08:00:00,
2013-10-02 04:05:00,54.4,51.5,30.08,WSW,255,0.0,0.0,90,0.00,SCT,SCT,0.00,0.0,WeatherDisplay:10.37,2013-10-02 08:05:00,
2013-10-02 04:10:00,54.3,51.4,30.08,WSW,255,0.0,0.0,90,0.00,SCT,SCT,0.00,0.0,WeatherDisplay:10.37,2013-10-02 08:10:00,
2013-10-02 04:15:00,54.2,51.6,30.08,WSW,255,0.0,0.0,91,0.00,SCT,SCT,0.00,0.0,WeatherDisplay:10.37,2013-10-02 08:15:00,
2013-10-02 04:20:00,54.2,51.6,30.08,WSW,255,0.0,0.0,91,0.00,SCT,SCT,0.00,0.0,WeatherDisplay:10.37,2013-10-02 08:20:00,
2013-10-02 04:25:00,54.1,51.5,30.08,WSW,255,0.0,0.0,91,0.00,SCT,SCT,0.00,0.0,WeatherDisplay:10.37,2013-10-02 08:25:00,
2013-10-02 04:30:00,54.0,51.4,30.08,WSW,255,0.0,0.0,91,0.00,SCT,SCT,0.00,0.0,WeatherDisplay:10.37,2013-10-02 08:30:00,
2013-10-02 04:35:00,53.9,51.0,30.08,WSW,255,0.0,0.0,90,0.00,SCT,SCT,0.00,0.0,WeatherDisplay:10.37,2013-10-02 08:35:00,
2013-10-02 04:45:00,53.7,50.8,30.08,WSW,255,0.0,0.0,90,0.00,SCT,SCT,0.00,0.0,WeatherDisplay:10.37,2013-10-02 08:45:00,
2013-10-02 04:50:00,53.7,51.1,30.08,WSW,254,0.0,0.0,91,0.00,SCT,SCT,0.00,0.0,WeatherDisplay:10.37,2013-10-02 08:50:00,
2013-10-02 04:55:00,53.6,51.0,30.08,WSW,255,0.0,0.0,91,0.00,SCT,SCT,0.00,0.0,WeatherDisplay:10.37,2013-10-02 08:55:00,
2013-10-02 05:00:00,53.6,51.0,30.08,WSW,255,0.0,0.0,91,0.00,SCT,SCT,0.00,0.0,WeatherDisplay:10.37,2013-10-02 09:00:00,
2013-10-02 05:05:00,53.6,51.0,30.08,WSW,255,0.0,0.0,91,0.00,SCT,SCT,0.00,0.0,WeatherDisplay:10.37,2013-10-02 09:05:00,
2013-10-02 05:10:00,53.5,50.9,30.08,WSW,255,0.0,0.0,91,0.00,SCT,SCT,0.00,0.0,WeatherDisplay:10.37,2013-10-02 09:10:00,
2013-10-02 05:15:00,53.4,50.8,30.08,WSW,255,0.0,0.0,91,0.00,SCT,SCT,0.00,0.0,WeatherDisplay:10.37,2013-10-02 09:15:00,
2013-10-02 05:20:00,53.3,50.8,30.08,WSW,255,0.0,0.0,91,0.00,SCT,SCT,0.00,0.0,WeatherDisplay:10.37,2013-10-02 09:20:00,
2013-10-02 05:25:00,53.3,50.7,30.08,WSW,255,0.0,0.0,91,0.00,SCT,SCT,0.00,0.0,WeatherDisplay:10.37,2013-10-02 09:25:00,
2013-10-02 05:30:00,53.2,50.6,30.08,WSW,255,0.0,0.0,91,0.00,SCT,SCT,0.00,0.0,WeatherDisplay:10.37,2013-10-02 09:30:00,
2013-10-02 05:35:00,53.1,50.6,30.08,WSW,255,0.0,0.0,91,0.00,SCT,SCT,0.00,0.0,WeatherDisplay:10.37,2013-10-02 09:35:00,
2013-10-02 05:40:00,53.0,50.4,30.08,WSW,255,0.0,0.0,91,0.00,SCT,SCT,0.00,0.0,WeatherDisplay:10.37,2013-10-02 09:40:00,
2013-10-02 05:45:00,53.0,50.4,30.08,WSW,255,0.0,0.0,91,0.00,SCT,SCT,0.00,0.0,WeatherDisplay:10.37,2013-10-02 09:45:00,
2013-10-02 05:50:00,52.9,50.3,30.08,WSW,255,0.0,0.0,91,0.00,SCT,SCT,0.00,0.0,WeatherDisplay:10.37,2013-10-02 09:50:00,
2013-10-02 05:55:00,52.8,50.3,30.08,WSW,255,0.0,0.0,91,0.00,SCT,SCT,0.00,0.0,WeatherDisplay:10.37,2013-10-02 09:55:00,
2013-10-02 06:00:00,52.8,50.2,30.08,WSW,255,0.0,0.0,91,0.00,SCT,SCT,0.00,0.0,WeatherDisplay:10.37,2013-10-02 10:00:00,
2013-10-02 06:05:00,52.7,50.1,30.08,WSW,255,0.0,0.0,91,0.00,SCT,SCT,0.00,0.0,WeatherDisplay:10.37,2013-10-02 10:05:00,
2013-10-02 06:10:00,52.6,50.0,30.08,WSW,255,0.0,0.0,91,0.00,SCT,SCT,0.00,0.0,WeatherDisplay:10.37,2013-10-02 10:10:00,
2013-10-02 06:15:00,52.6,50.0,30.08,WSW,255,0.0,0.0,91,0.00,SCT,SCT,0.00,0.0,WeatherDisplay:10.37,2013-10-02 10:15:00,
2013-10-02 06:20:00,52.5,49.9,30.09,WSW,255,0.0,0.0,91,0.00,SCT,SCT,0.00,0.0,WeatherDisplay:10.37,2013-10-02 10:20:00,
2013-10-02 06:25:00,52.5,49.9,30.09,WSW,255,0.0,0.0,91,0.00,SCT,SCT,0.00,0.0,WeatherDisplay:10.37,2013-10-02 10:25:00,
2013-10-02 06:30:00,52.4,49.9,30.09,WSW,255,0.0,0.0,91,0.00,SCT,SCT,0.00,0.0,WeatherDisplay:10.37,2013-10-02 10:30:00,
2013-10-02 06:35:00,52.4,49.8,30.09,WSW,255,0.0,0.0,91,0.00,SCT,SCT,0.00,0.0,WeatherDisplay:10.37,2013-10-02 10:35:00,
2013-10-02 06:40:00,52.3,49.8,30.09,WSW,255,0.0,0.0,91,0.00,SCT,SCT,0.00,0.0,WeatherDisplay:10.37,2013-10-02 10:40:00,
2013-10-02 06:45:00,52.3,49.7,30.09,WSW,255,0.0,0.0,91,0.00,SCT,SCT,0.00,0.0,WeatherDisplay:10.37,2013-10-02 10:45:00,
2013-10-02 06:50:00,52.2,49.7,30.10,WSW,255,0.0,0.0,91,0.00,SCT,SCT,0.00,0.0,WeatherDisplay:10.37,2013-10-02 10:50:00,
2013-10-02 06:55:00,52.1,49.6,30.10,WSW,255,0.0,0.0,91,0.00,SCT,SCT,0.00,0.0,WeatherDisplay:10.37,2013-10-02 10:55:00,
2013-10-02 07:00:00,52.1,49.6,30.10,WSW,255,0.0,0.0,91,0.00,SCT,SCT,0.00,0.0,WeatherDisplay:10.37,2013-10-02 11:00:00,
2013-10-02 07:05:00,52.0,49.5,30.10,WSW,255,0.0,0.0,91,0.00,SCT,SCT,0.00,0.0,WeatherDisplay:10.37,2013-10-02 11:05:00,
2013-10-02 07:10:00,51.9,49.4,30.10,WSW,255,0.0,0.0,91,0.00,SCT,SCT,0.00,0.0,WeatherDisplay:10.37,2013-10-02 11:10:00,
2013-10-02 07:15:00,51.9,49.4,30.11,WSW,255,0.0,0.0,91,0.00,SCT,SCT,0.00,0.0,WeatherDisplay:10.37,2013-10-02 11:15:00,
2013-10-02 07:20:00,51.8,49.3,30.11,WSW,255,0.0,0.0,91,0.00,SCT,SCT,0.00,0.0,WeatherDisplay:10.37,2013-10-02 11:20:00,
2013-10-02 07:25:00,51.8,49.3,30.11,WSW,255,0.0,0.0,91,0.00,SCT,SCT,0.00,5.0,WeatherDisplay:10.37,2013-10-02 11:25:00,
2013-10-02 07:30:00,51.8,49.3,30.11,WSW,255,0.0,0.0,91,0.00,SCT,SCT,0.00,9.0,WeatherDisplay:10.37,2013-10-02 11:30:00,
2013-10-02 07:35:00,51.8,49.2,30.11,WSW,255,0.0,0.0,91,0.00,SCT,SCT,0.00,11.0,WeatherDisplay:10.37,2013-10-02 11:35:00,
2013-10-02 07:40:00,51.7,49.2,30.11,WSW,255,0.0,0.0,91,0.00,SCT,SCT,0.00,14.0,WeatherDisplay:10.37,2013-10-02 11:40:00,
2013-10-02 07:45:00,51.7,49.2,30.12,WSW,255,0.0,0.0,91,0.00,FEW,SCT,0.00,46.0,WeatherDisplay:10.37,2013-10-02 11:45:00,
2013-10-02 07:50:00,51.7,49.2,30.12,WSW,255,0.0,0.0,91,0.00,CLR,SCT,0.00,60.0,WeatherDisplay:10.37,2013-10-02 11:50:00,
2013-10-02 07:55:00,51.8,49.3,30.12,WSW,255,0.0,0.0,91,0.00,CLR,SCT,0.00,77.0,WeatherDisplay:10.37,2013-10-02 11:55:00,
2013-10-02 08:00:00,52.1,49.8,30.12,WSW,255,0.0,0.0,92,0.00,CLR,SCT,0.00,90.0,WeatherDisplay:10.37,2013-10-02 12:00:00,
2013-10-02 08:05:00,52.6,50.3,30.12,WSW,255,0.0,0.0,92,0.00,CLR,SCT,0.00,104.0,WeatherDisplay:10.37,2013-10-02 12:05:00,
2013-10-02 08:10:00,53.2,51.5,30.12,WSW,255,0.0,0.0,94,0.00,CLR,SCT,0.00,116.0,WeatherDisplay:10.37,2013-10-02 12:10:00,
2013-10-02 08:15:00,53.7,51.5,30.13,WSW,255,0.0,0.0,92,0.00,CLR,SCT,0.00,130.0,WeatherDisplay:10.37,2013-10-02 12:15:00,
2013-10-02 08:20:00,54.3,52.1,30.13,WSW,255,0.0,0.0,92,0.00,CLR,SCT,0.00,144.0,WeatherDisplay:10.37,2013-10-02 12:20:00,
2013-10-02 08:25:00,55.0,52.7,30.13,WSW,255,0.0,0.0,92,0.00,CLR,SCT,0.00,158.0,WeatherDisplay:10.37,2013-10-02 12:25:00,
2013-10-02 08:30:00,55.5,53.3,30.13,WSW,255,0.0,0.0,92,0.00,CLR,SCT,0.00,172.0,WeatherDisplay:10.37,2013-10-02 12:30:00,
2013-10-02 08:35:00,56.2,53.9,30.13,WSW,255,0.0,0.0,92,0.00,CLR,SCT,0.00,186.0,WeatherDisplay:10.37,2013-10-02 12:35:00,
2013-10-02 08:40:00,56.8,54.5,30.13,WSW,255,0.0,0.0,92,0.00,CLR,SCT,0.00,200.0,WeatherDisplay:10.37,2013-10-02 12:40:00,
2013-10-02 08:45:00,57.6,55.3,30.13,WSW,255,0.0,0.0,92,0.00,CLR,SCT,0.00,214.0,WeatherDisplay:10.37,2013-10-02 12:45:00,
2013-10-02 08:50:00,58.2,55.9,30.14,WSW,255,0.0,0.0,92,0.00,CLR,SCT,0.00,229.0,WeatherDisplay:10.37,2013-10-02 12:50:00,
2013-10-02 08:55:00,59.1,56.8,30.14,WSW,255,0.0,0.0,92,0.00,CLR,SCT,0.00,246.0,WeatherDisplay:10.37,2013-10-02 12:55:00,
2013-10-02 09:00:00,60.0,57.6,30.14,WSW,255,0.0,0.0,92,0.00,CLR,SCT,0.00,264.0,WeatherDisplay:10.37,2013-10-02 13:00:00,
2013-10-02 09:05:00,60.6,58.3,30.14,WSW,255,0.0,0.0,92,0.00,CLR,SCT,0.00,281.0,WeatherDisplay:10.37,2013-10-02 13:05:00,
2013-10-02 09:10:00,61.4,59.1,30.14,WSW,255,0.0,0.0,92,0.00,CLR,SCT,0.00,299.0,WeatherDisplay:10.37,2013-10-02 13:10:00,
2013-10-02 09:15:00,62.4,60.4,30.14,WSW,255,0.0,0.0,93,0.00,CLR,SCT,0.00,316.0,WeatherDisplay:10.37,2013-10-02 13:15:00,
2013-10-02 09:20:00,63.3,61.2,30.14,WSW,255,0.0,0.0,93,0.00,CLR,SCT,0.00,330.0,WeatherDisplay:10.37,2013-10-02 13:20:00,
2013-10-02 09:25:00,63.8,61.7,30.14,WSW,255,0.0,0.0,93,0.00,CLR,SCT,0.00,348.0,WeatherDisplay:10.37,2013-10-02 13:25:00,
2013-10-02 09:30:00,64.0,61.9,30.14,WSW,255,0.0,0.0,93,0.00,CLR,SCT,0.00,364.0,WeatherDisplay:10.37,2013-10-02 13:30:00,
2013-10-02 09:35:00,64.5,62.5,30.14,WSW,255,0.0,0.0,93,0.00,CLR,SCT,0.00,388.0,WeatherDisplay:10.37,2013-10-02 13:35:00,
2013-10-02 09:40:00,65.2,63.1,30.14,WSW,255,0.0,0.0,93,0.00,CLR,SCT,0.00,410.0,WeatherDisplay:10.37,2013-10-02 13:40:00,
2013-10-02 09:45:00,65.9,63.8,30.14,WSW,255,0.0,0.0,93,0.00,CLR,SCT,0.00,429.0,WeatherDisplay:10.37,2013-10-02 13:45:00,
2013-10-02 09:50:00,66.2,63.8,30.15,WSW,255,0.0,0.0,92,0.00,CLR,SCT,0.00,446.0,WeatherDisplay:10.37,2013-10-02 13:50:00,
2013-10-02 09:55:00,66.8,64.1,30.14,WSW,255,0.0,0.0,91,0.00,CLR,SCT,0.00,461.0,WeatherDisplay:10.37,2013-10-02 13:55:00,
2013-10-02 10:00:00,67.4,64.4,30.14,WSW,255,0.0,0.0,90,0.00,CLR,SCT,0.00,475.0,WeatherDisplay:10.37,2013-10-02 14:00:00,
2013-10-02 10:05:00,68.0,64.7,30.14,WSW,255,0.0,0.0,89,0.00,CLR,SCT,0.00,490.0,WeatherDisplay:10.37,2013-10-02 14:05:00,
2013-10-02 10:10:00,68.6,63.9,30.14,WSW,255,0.0,0.0,85,0.00,CLR,SCT,0.00,506.0,WeatherDisplay:10.37,2013-10-02 14:10:00,
2013-10-02 10:15:00,69.5,64.7,30.14,WSW,255,0.0,0.0,85,0.00,CLR,SCT,0.00,520.0,WeatherDisplay:10.37,2013-10-02 14:15:00,
2013-10-02 10:20:00,70.2,64.5,30.14,WSW,255,0.0,0.0,82,0.00,CLR,SCT,0.00,536.0,WeatherDisplay:10.37,2013-10-02 14:20:00,
2013-10-02 10:25:00,71.0,64.1,30.15,WSW,255,0.0,0.0,79,0.00,CLR,SCT,0.00,550.0,WeatherDisplay:10.37,2013-10-02 14:25:00,
2013-10-02 10:30:00,71.6,62.9,30.15,WSW,255,0.0,0.0,74,0.00,CLR,SCT,0.00,564.0,WeatherDisplay:10.37,2013-10-02 14:30:00,
2013-10-02 10:35:00,72.3,63.1,30.15,WSW,255,0.0,0.0,73,0.00,CLR,SCT,0.00,577.0,WeatherDisplay:10.37,2013-10-02 14:35:00,
2013-10-02 10:40:00,72.8,63.6,30.14,WSW,255,0.0,0.0,73,0.00,CLR,SCT,0.00,589.0,WeatherDisplay:10.37,2013-10-02 14:40:00,
2013-10-02 10:45:00,73.2,63.3,30.14,WSW,255,0.0,2.0,71,0.00,CLR,SCT,0.00,603.0,WeatherDisplay:10.37,2013-10-02 14:45:00,
2013-10-02 10:50:00,73.7,63.7,30.14,WSW,255,0.0,1.0,71,0.00,CLR,SCT,0.00,615.0,WeatherDisplay:10.37,2013-10-02 14:50:00,
2013-10-02 10:55:00,74.1,63.7,30.14,WSW,254,0.0,1.0,70,0.00,CLR,SCT,0.00,631.0,WeatherDisplay:10.37,2013-10-02 14:55:00,
2013-10-02 11:00:00,74.5,62.4,30.14,WSW,255,0.0,2.0,66,0.00,CLR,SCT,0.00,638.0,WeatherDisplay:10.37,2013-10-02 15:00:00,
2013-10-02 11:05:00,75.0,62.9,30.14,WSW,247,2.0,5.0,66,0.00,CLR,SCT,0.00,656.0,WeatherDisplay:10.37,2013-10-02 15:05:00,
2013-10-02 11:10:00,75.4,61.5,30.14,SW,230,1.0,4.0,62,0.00,CLR,SCT,0.00,666.0,WeatherDisplay:10.37,2013-10-02 15:10:00,
2013-10-02 11:15:00,75.7,60.8,30.14,SSW,207,2.0,5.0,60,0.00,CLR,SCT,0.00,679.0,WeatherDisplay:10.37,2013-10-02 15:15:00,
2013-10-02 11:20:00,76.0,61.6,30.14,SSW,195,2.0,4.0,61,0.00,CLR,SCT,0.00,691.0,WeatherDisplay:10.37,2013-10-02 15:20:00,
2013-10-02 11:25:00,76.2,60.9,30.14,South,178,2.0,4.0,59,0.00,CLR,SCT,0.00,701.0,WeatherDisplay:10.37,2013-10-02 15:25:00,
2013-10-02 11:30:00,76.5,61.1,30.14,SSE,161,2.0,5.0,59,0.00,CLR,SCT,0.00,710.0,WeatherDisplay:10.37,2013-10-02 15:30:00,
2013-10-02 11:35:00,76.7,60.3,30.13,SSE,155,2.0,4.0,57,0.00,CLR,SCT,0.00,719.0,WeatherDisplay:10.37,2013-10-02 15:35:00,
2013-10-02 11:40:00,76.8,59.4,30.13,SSE,152,2.0,4.0,55,0.00,CLR,SCT,0.00,728.0,WeatherDisplay:10.37,2013-10-02 15:40:00,
2013-10-02 11:45:00,77.1,60.7,30.13,SSE,148,0.0,5.0,57,0.00,CLR,SCT,0.00,740.0,WeatherDisplay:10.37,2013-10-02 15:45:00,
2013-10-02 11:50:00,77.5,60.6,30.13,SE,145,0.0,2.0,56,0.00,CLR,SCT,0.00,747.0,WeatherDisplay:10.37,2013-10-02 15:50:00,
2013-10-02 11:55:00,77.8,60.8,30.13,SE,144,0.0,4.0,56,0.00,CLR,SCT,0.00,756.0,WeatherDisplay:10.37,2013-10-02 15:55:00,
2013-10-02 12:00:00,78.2,60.2,30.13,SE,144,0.0,3.0,54,0.00,CLR,SCT,0.00,763.0,WeatherDisplay:10.37,2013-10-02 16:00:00,
2013-10-02 12:10:00,78.8,60.2,30.12,SE,132,0.0,5.0,53,0.00,CLR,SCT,0.00,777.0,WeatherDisplay:10.37,2013-10-02 16:10:00,
2013-10-02 12:15:00,79.0,60.9,30.12,SE,129,1.0,4.0,54,0.00,CLR,SCT,0.00,780.0,WeatherDisplay:10.37,2013-10-02 16:15:00,
2013-10-02 12:20:00,79.2,61.1,30.12,ESE,115,0.0,5.0,54,0.00,CLR,SCT,0.00,789.0,WeatherDisplay:10.37,2013-10-02 16:20:00,
2013-10-02 12:25:00,79.3,61.2,30.12,ESE,113,1.0,7.0,54,0.00,CLR,SCT,0.00,800.0,WeatherDisplay:10.37,2013-10-02 16:25:00,
2013-10-02 12:30:00,79.3,61.2,30.11,East,86,0.0,7.0,54,0.00,CLR,SCT,0.00,798.0,WeatherDisplay:10.37,2013-10-02 16:30:00,
2013-10-02 12:35:00,79.5,60.9,30.11,ENE,70,2.0,8.0,53,0.00,CLR,SCT,0.00,821.0,WeatherDisplay:10.37,2013-10-02 16:35:00,
2013-10-02 12:40:00,79.6,61.5,30.11,ENE,67,1.0,4.0,54,0.00,CLR,SCT,0.00,847.0,WeatherDisplay:10.37,2013-10-02 16:40:00,
2013-10-02 12:45:00,79.7,60.0,30.11,ENE,66,1.0,5.0,51,0.00,CLR,SCT,0.00,846.0,WeatherDisplay:10.37,2013-10-02 16:45:00,
2013-10-02 12:50:00,79.8,60.6,30.11,ENE,63,3.0,7.0,52,0.00,CLR,SCT,0.00,735.0,WeatherDisplay:10.37,2013-10-02 16:50:00,
2013-10-02 12:55:00,79.9,61.3,30.11,ENE,61,1.0,2.0,53,0.00,CLR,SCT,0.00,856.0,WeatherDisplay:10.37,2013-10-02 16:55:00,
2013-10-02 13:00:00,80.1,60.3,30.10,ENE,57,3.0,7.0,51,0.00,CLR,SCT,0.00,919.0,WeatherDisplay:10.37,2013-10-02 17:00:00,
2013-10-02 13:05:00,80.2,60.4,30.10,NE,54,1.0,5.0,51,0.00,CLR,SCT,0.00,949.0,WeatherDisplay:10.37,2013-10-02 17:05:00,
2013-10-02 13:10:00,80.2,60.4,30.10,ENE,59,2.0,5.0,51,0.00,CLR,SCT,0.00,192.0,WeatherDisplay:10.37,2013-10-02 17:10:00,
2013-10-02 13:15:00,80.0,60.2,30.10,ENE,63,2.0,4.0,51,0.00,FEW,SCT,0.00,904.0,WeatherDisplay:10.37,2013-10-02 17:15:00,
2013-10-02 13:20:00,79.9,61.3,30.10,ENE,63,1.0,4.0,53,0.00,FEW,SCT,0.00,925.0,WeatherDisplay:10.37,2013-10-02 17:20:00,
2013-10-02 13:25:00,80.0,60.8,30.09,ENE,63,1.0,4.0,52,0.00,FEW,SCT,0.00,904.0,WeatherDisplay:10.37,2013-10-02 17:25:00,
2013-10-02 13:30:00,80.1,61.4,30.09,ENE,63,0.0,1.0,53,0.00,FEW,SCT,0.00,891.0,WeatherDisplay:10.37,2013-10-02 17:30:00,
2013-10-02 13:35:00,80.4,63.2,30.09,ENE,63,1.0,3.0,56,0.00,CLR,SCT,0.00,881.0,WeatherDisplay:10.37,2013-10-02 17:35:00,
2013-10-02 13:40:00,80.5,60.7,30.09,ENE,69,1.0,8.0,51,0.00,CLR,SCT,0.00,886.0,WeatherDisplay:10.37,2013-10-02 17:40:00,
2013-10-02 13:45:00,80.6,60.8,30.08,ENE,70,3.0,7.0,51,0.00,CLR,SCT,0.00,940.0,WeatherDisplay:10.37,2013-10-02 17:45:00,
2013-10-02 13:50:00,80.8,62.1,30.08,ENE,71,1.0,3.0,53,0.00,CLR,SCT,0.00,970.0,WeatherDisplay:10.37,2013-10-02 17:50:00,
2013-10-02 13:55:00,81.0,60.6,30.08,ENE,74,0.0,7.0,50,0.00,CLR,SCT,0.00,251.0,WeatherDisplay:10.37,2013-10-02 17:55:00,
2013-10-02 14:00:00,81.1,60.7,30.08,ENE,75,0.0,2.0,50,0.00,SCT,SCT,0.00,257.0,WeatherDisplay:10.37,2013-10-02 18:00:00,
2013-10-02 14:05:00,81.0,61.2,30.08,ENE,75,0.0,3.0,51,0.00,BKN,SCT,0.00,272.0,WeatherDisplay:10.37,2013-10-02 18:05:00,
2013-10-02 14:10:00,80.7,60.9,30.08,ENE,75,2.0,4.0,51,0.00,BKN,SCT,0.00,257.0,WeatherDisplay:10.37,2013-10-02 18:10:00,
2013-10-02 14:15:00,80.5,60.1,30.07,ENE,75,1.0,4.0,50,0.00,SCT,SCT,0.00,962.0,WeatherDisplay:10.37,2013-10-02 18:15:00,
2013-10-02 14:20:00,80.5,60.7,30.08,ENE,76,0.0,4.0,51,0.00,FEW,SCT,0.00,974.0,WeatherDisplay:10.37,2013-10-02 18:20:00,
2013-10-02 14:25:00,80.8,62.1,30.07,ENE,76,0.0,5.0,53,0.00,CLR,SCT,0.00,1004.0,WeatherDisplay:10.37,2013-10-02 18:25:00,
2013-10-02 14:30:00,81.1,60.1,30.08,ENE,76,0.0,1.0,49,0.00,CLR,SCT,0.00,262.0,WeatherDisplay:10.37,2013-10-02 18:30:00,
2013-10-02 14:35:00,81.1,60.7,30.07,ENE,76,1.0,3.0,50,0.00,SCT,SCT,0.00,225.0,WeatherDisplay:10.37,2013-10-02 18:35:00,
2013-10-02 14:40:00,81.0,60.6,30.07,ENE,75,2.0,4.0,50,0.00,BKN,SCT,0.00,232.0,WeatherDisplay:10.37,2013-10-02 18:40:00,
2013-10-02 14:45:00,80.8,61.0,30.07,ENE,74,1.0,3.0,51,0.00,BKN,SCT,0.00,232.0,WeatherDisplay:10.37,2013-10-02 18:45:00,
2013-10-02 14:50:00,80.6,60.8,30.07,ENE,70,1.0,3.0,51,0.00,BKN,SCT,0.00,181.0,WeatherDisplay:10.37,2013-10-02 18:50:00,
2013-10-02 14:55:00,80.4,61.1,30.07,ENE,60,0.0,3.0,52,0.00,BKN,SCT,0.00,195.0,WeatherDisplay:10.37,2013-10-02 18:55:00,
2013-10-02 15:00:00,80.1,60.3,30.07,NE,51,0.0,3.0,51,0.00,BKN,SCT,0.00,167.0,WeatherDisplay:10.37,2013-10-02 19:00:00,
2013-10-02 15:05:00,79.8,60.6,30.07,NE,51,1.0,2.0,52,0.00,BKN,SCT,0.00,151.0,WeatherDisplay:10.37,2013-10-02 19:05:00,
2013-10-02 15:10:00,79.5,61.9,30.06,NE,51,0.0,2.0,55,0.00,OVC,SCT,0.00,141.0,WeatherDisplay:10.37,2013-10-02 19:10:00,
2013-10-02 15:15:00,79.4,63.3,30.06,NE,51,0.0,1.0,58,0.00,OVC,SCT,0.00,128.0,WeatherDisplay:10.37,2013-10-02 19:15:00,
2013-10-02 15:20:00,78.9,59.3,30.06,NE,51,0.0,2.0,51,0.00,OVC,SCT,0.00,114.0,WeatherDisplay:10.37,2013-10-02 19:20:00,
2013-10-02 15:25:00,78.7,62.7,30.06,NE,51,0.0,1.0,58,0.00,OVC,SCT,0.00,98.0,WeatherDisplay:10.37,2013-10-02 19:25:00,
2013-10-02 15:30:00,78.5,61.0,30.06,NE,51,0.0,1.0,55,0.00,OVC,SCT,0.00,118.0,WeatherDisplay:10.37,2013-10-02 19:30:00,
2013-10-02 15:35:00,78.4,62.4,30.06,NE,51,0.0,1.0,58,0.00,OVC,SCT,0.00,114.0,WeatherDisplay:10.37,2013-10-02 19:35:00,
2013-10-02 15:40:00,78.3,65.1,30.06,NE,51,0.0,0.0,64,0.00,SCT,SCT,0.00,675.0,WeatherDisplay:10.37,2013-10-02 19:40:00,
2013-10-02 15:45:00,78.3,61.8,30.06,NE,51,0.0,1.0,57,0.00,SCT,SCT,0.00,118.0,WeatherDisplay:10.37,2013-10-02 19:45:00,
2013-10-02 15:50:00,78.2,61.7,30.05,NE,51,0.0,1.0,57,0.00,BKN,SCT,0.00,97.0,WeatherDisplay:10.37,2013-10-02 19:50:00,
2013-10-02 15:55:00,78.3,64.2,30.05,NE,51,0.0,0.0,62,0.00,BKN,SCT,0.00,640.0,WeatherDisplay:10.37,2013-10-02 19:55:00,
2013-10-02 16:00:00,78.3,63.3,30.05,NE,51,0.0,0.0,60,0.00,BKN,SCT,0.00,98.0,WeatherDisplay:10.37,2013-10-02 20:00:00,
2013-10-02 16:05:00,78.3,63.7,30.05,NE,51,0.0,0.0,61,0.00,BKN,SCT,0.00,98.0,WeatherDisplay:10.37,2013-10-02 20:05:00,
2013-10-02 16:10:00,78.3,63.7,30.05,NE,51,0.0,1.0,61,0.00,OVC,SCT,0.00,100.0,WeatherDisplay:10.37,2013-10-02 20:10:00,
2013-10-02 16:15:00,78.3,64.7,30.05,NE,51,0.0,1.0,63,0.00,BKN,SCT,0.00,610.0,WeatherDisplay:10.37,2013-10-02 20:15:00,
2013-10-02 16:20:00,78.2,63.6,30.05,NE,51,0.0,1.0,61,0.00,SCT,SCT,0.00,601.0,WeatherDisplay:10.37,2013-10-02 20:20:00,
2013-10-02 16:30:00,78.1,61.6,30.05,NE,55,0.0,1.0,57,0.00,SCT,SCT,0.00,90.0,WeatherDisplay:10.37,2013-10-02 20:30:00,
2013-10-02 16:35:00,78.2,64.1,30.05,ENE,60,0.0,1.0,62,0.00,SCT,SCT,0.00,527.0,WeatherDisplay:10.37,2013-10-02 20:35:00,
2013-10-02 16:40:00,78.3,61.8,30.05,ENE,61,0.0,1.0,57,0.00,FEW,SCT,0.00,83.0,WeatherDisplay:10.37,2013-10-02 20:40:00,
2013-10-02 16:45:00,78.3,61.8,30.05,ENE,61,0.0,1.0,57,0.00,SCT,SCT,0.00,67.0,WeatherDisplay:10.37,2013-10-02 20:45:00,
2013-10-02 16:50:00,78.4,62.4,30.04,ENE,61,0.0,1.0,58,0.00,SCT,SCT,0.00,450.0,WeatherDisplay:10.37,2013-10-02 20:50:00,
2013-10-02 16:55:00,78.5,61.5,30.04,ENE,61,0.0,1.0,56,0.00,CLR,SCT,0.00,436.0,WeatherDisplay:10.37,2013-10-02 20:55:00,
2013-10-02 17:00:00,78.6,62.1,30.05,ENE,61,0.0,1.0,57,0.00,CLR,SCT,0.00,420.0,WeatherDisplay:10.37,2013-10-02 21:00:00,
2013-10-02 17:05:00,78.9,63.8,30.05,ENE,60,0.0,1.0,60,0.00,CLR,SCT,0.00,408.0,WeatherDisplay:10.37,2013-10-02 21:05:00,
2013-10-02 17:10:00,79.1,62.6,30.05,ENE,61,0.0,1.0,57,0.00,CLR,SCT,0.00,401.0,WeatherDisplay:10.37,2013-10-02 21:10:00,
2013-10-02 17:15:00,79.3,61.7,30.05,ENE,61,0.0,2.0,55,0.00,CLR,SCT,0.00,378.0,WeatherDisplay:10.37,2013-10-02 21:15:00,
2013-10-02 17:25:00,79.9,60.7,30.05,ENE,61,0.0,0.0,52,0.00,CLR,SCT,0.00,332.0,WeatherDisplay:10.37,2013-10-02 21:25:00,
2013-10-02 17:30:00,80.1,62.0,30.05,ENE,61,0.0,2.0,54,0.00,CLR,SCT,0.00,315.0,WeatherDisplay:10.37,2013-10-02 21:30:00,
2013-10-02 17:35:00,80.3,62.7,30.05,ENE,61,0.0,1.0,55,0.00,CLR,SCT,0.00,297.0,WeatherDisplay:10.37,2013-10-02 21:35:00,
2013-10-02 17:40:00,80.4,62.2,30.05,ENE,61,0.0,1.0,54,0.00,CLR,SCT,0.00,278.0,WeatherDisplay:10.37,2013-10-02 21:40:00,
2013-10-02 17:45:00,80.8,63.6,30.05,ENE,61,0.0,1.0,56,0.00,CLR,SCT,0.00,251.0,WeatherDisplay:10.37,2013-10-02 21:45:00,
2013-10-02 17:50:00,81.0,64.8,30.05,ENE,61,0.0,1.0,58,0.00,CLR,SCT,0.00,248.0,WeatherDisplay:10.37,2013-10-02 21:50:00,
2013-10-02 17:55:00,81.2,61.9,30.05,ENE,61,0.0,1.0,52,0.00,CLR,SCT,0.00,149.0,WeatherDisplay:10.37,2013-10-02 21:55:00,
2013-10-02 18:00:00,81.5,64.3,30.05,ENE,61,0.0,0.0,56,0.00,FEW,SCT,0.00,97.0,WeatherDisplay:10.37,2013-10-02 22:00:00,
2013-10-02 18:10:00,81.5,66.8,30.05,ENE,61,0.0,0.0,61,0.00,BKN,SCT,0.00,62.0,WeatherDisplay:10.37,2013-10-02 22:10:00,
2013-10-02 18:15:00,81.1,66.4,30.05,ENE,59,0.0,0.0,61,0.00,SCT,SCT,0.00,65.0,WeatherDisplay:10.37,2013-10-02 22:15:00,
2013-10-02 18:20:00,80.4,66.2,30.05,ENE,58,0.0,0.0,62,0.00,BKN,SCT,0.00,47.0,WeatherDisplay:10.37,2013-10-02 22:20:00,
2013-10-02 18:25:00,79.3,65.2,30.05,ENE,58,0.0,0.0,62,0.00,SCT,SCT,0.00,51.0,WeatherDisplay:10.37,2013-10-02 22:25:00,
2013-10-02 18:35:00,77.4,64.7,30.05,ENE,57,0.0,0.0,65,0.00,BKN,SCT,0.00,30.0,WeatherDisplay:10.37,2013-10-02 22:35:00,
2013-10-02 18:40:00,76.5,64.3,30.05,ENE,58,0.0,0.0,66,0.00,BKN,SCT,0.00,25.0,WeatherDisplay:10.37,2013-10-02 22:40:00,
2013-10-02 18:45:00,75.6,63.8,30.05,ENE,58,0.0,0.0,67,0.00,SCT,SCT,0.00,30.0,WeatherDisplay:10.37,2013-10-02 22:45:00,
2013-10-02 18:50:00,74.7,63.4,30.05,ENE,58,0.0,0.0,68,0.00,SCT,SCT,0.00,26.0,WeatherDisplay:10.37,2013-10-02 22:50:00,
2013-10-02 18:55:00,73.9,63.1,30.05,ENE,57,0.0,0.0,69,0.00,SCT,SCT,0.00,11.0,WeatherDisplay:10.37,2013-10-02 22:55:00,
2013-10-02 19:00:00,73.1,62.7,30.06,ENE,58,0.0,0.0,70,0.00,SCT,SCT,0.00,5.0,WeatherDisplay:10.37,2013-10-02 23:00:00,
2013-10-02 19:05:00,72.4,62.8,30.06,ENE,58,0.0,0.0,72,0.00,SCT,SCT,0.00,0.0,WeatherDisplay:10.37,2013-10-02 23:05:00,
2013-10-02 19:10:00,71.6,62.5,30.06,ENE,57,0.0,0.0,73,0.00,SCT,SCT,0.00,0.0,WeatherDisplay:10.37,2013-10-02 23:10:00,
2013-10-02 19:15:00,70.9,62.2,30.06,ENE,58,0.0,0.0,74,0.00,SCT,SCT,0.00,0.0,WeatherDisplay:10.37,2013-10-02 23:15:00,
2013-10-02 19:20:00,70.3,61.6,30.06,ENE,58,0.0,0.0,74,0.00,SCT,SCT,0.00,0.0,WeatherDisplay:10.37,2013-10-02 23:20:00,
2013-10-02 19:25:00,69.6,61.4,30.06,ENE,58,0.0,0.0,75,0.00,SCT,SCT,0.00,0.0,WeatherDisplay:10.37,2013-10-02 23:25:00,
2013-10-02 19:35:00,68.6,61.1,30.06,ENE,58,0.0,0.0,77,0.00,SCT,SCT,0.00,0.0,WeatherDisplay:10.37,2013-10-02 23:35:00,
2013-10-02 19:40:00,68.2,61.1,30.06,ENE,58,0.0,0.0,78,0.00,SCT,SCT,0.00,0.0,WeatherDisplay:10.37,2013-10-02 23:40:00,
2013-10-02 19:45:00,67.7,61.0,30.06,ENE,58,0.0,0.0,79,0.00,SCT,SCT,0.00,0.0,WeatherDisplay:10.37,2013-10-02 23:45:00,
2013-10-02 19:50:00,67.3,60.6,30.06,ENE,57,0.0,0.0,79,0.00,SCT,SCT,0.00,0.0,WeatherDisplay:10.37,2013-10-02 23:50:00,
2013-10-02 19:55:00,67.0,60.6,30.06,ENE,58,0.0,0.0,80,0.00,SCT,SCT,0.00,0.0,WeatherDisplay:10.37,2013-10-02 23:55:00,
2013-10-02 20:00:00,66.7,60.6,30.07,ENE,58,0.0,0.0,81,0.00,SCT,SCT,0.00,0.0,WeatherDisplay:10.37,2013-10-03 00:00:00,
2013-10-02 20:05:00,66.4,60.3,30.07,ENE,58,0.0,0.0,81,0.00,SCT,SCT,0.00,0.0,WeatherDisplay:10.37,2013-10-03 00:05:00,
2013-10-02 20:10:00,66.1,60.1,30.07,ENE,58,0.0,0.0,81,0.00,SCT,SCT,0.00,0.0,WeatherDisplay:10.37,2013-10-03 00:10:00,
2013-10-02 20:15:00,65.8,60.2,30.07,ENE,58,0.0,0.0,82,0.00,SCT,SCT,0.00,0.0,WeatherDisplay:10.37,2013-10-03 00:15:00,
2013-10-02 20:20:00,65.6,60.0,30.07,ENE,58,0.0,0.0,82,0.00,SCT,SCT,0.00,0.0,WeatherDisplay:10.37,2013-10-03 00:20:00,
2013-10-02 20:25:00,65.3,59.7,30.07,ENE,58,0.0,0.0,82,0.00,SCT,SCT,0.00,0.0,WeatherDisplay:10.37,2013-10-03 00:25:00,
2013-10-02 20:30:00,65.2,59.5,30.07,ENE,58,0.0,0.0,82,0.00,SCT,SCT,0.00,0.0,WeatherDisplay:10.37,2013-10-03 00:30:00,
2013-10-02 20:40:00,64.8,59.5,30.07,ENE,58,0.0,0.0,83,0.00,SCT,SCT,0.00,0.0,WeatherDisplay:10.37,2013-10-03 00:40:00,
2013-10-02 20:50:00,64.4,59.5,30.07,ENE,58,0.0,0.0,84,0.00,SCT,SCT,0.00,0.0,WeatherDisplay:10.37,2013-10-03 00:50:00,
2013-10-02 20:55:00,64.2,59.6,30.07,ENE,58,0.0,0.0,85,0.00,SCT,SCT,0.00,0.0,WeatherDisplay:10.37,2013-10-03 00:55:00,
2013-10-02 21:00:00,64.0,59.4,30.08,ENE,58,0.0,0.0,85,0.00,SCT,SCT,0.00,0.0,WeatherDisplay:10.37,2013-10-03 01:00:00,
2013-10-02 21:05:00,63.7,59.2,30.08,ENE,58,0.0,0.0,85,0.00,SCT,SCT,0.00,0.0,WeatherDisplay:10.37,2013-10-03 01:05:00,
2013-10-02 21:10:00,63.5,58.9,30.08,ENE,58,0.0,0.0,85,0.00,SCT,SCT,0.00,0.0,WeatherDisplay:10.37,2013-10-03 01:10:00,
2013-10-02 21:15:00,63.4,59.1,30.08,ENE,58,0.0,0.0,86,0.00,SCT,SCT,0.00,0.0,WeatherDisplay:10.37,2013-10-03 01:15:00,
2013-10-02 21:20:00,63.2,58.9,30.08,ENE,58,0.0,0.0,86,0.00,SCT,SCT,0.00,0.0,WeatherDisplay:10.37,2013-10-03 01:20:00,
2013-10-02 21:25:00,62.9,58.6,30.08,ENE,58,0.0,0.0,86,0.00,SCT,SCT,0.00,0.0,WeatherDisplay:10.37,2013-10-03 01:25:00,
2013-10-02 21:30:00,62.7,58.5,30.08,ENE,58,0.0,0.0,86,0.00,SCT,SCT,0.00,0.0,WeatherDisplay:10.37,2013-10-03 01:30:00,
2013-10-02 21:40:00,62.3,58.4,30.08,ENE,58,0.0,0.0,87,0.00,SCT,SCT,0.00,0.0,WeatherDisplay:10.37,2013-10-03 01:40:00,
2013-10-02 21:50:00,62.0,58.1,30.08,ENE,58,0.0,0.0,87,0.00,SCT,SCT,0.00,0.0,WeatherDisplay:10.37,2013-10-03 01:50:00,
2013-10-02 21:55:00,61.9,58.0,30.08,ENE,58,0.0,0.0,87,0.00,SCT,SCT,0.00,0.0,WeatherDisplay:10.37,2013-10-03 01:55:00,
2013-10-02 22:00:00,61.8,57.9,30.08,ENE,58,0.0,0.0,87,0.00,SCT,SCT,0.00,0.0,WeatherDisplay:10.37,2013-10-03 02:00:00,
2013-10-02 22:05:00,61.6,58.0,30.08,ENE,58,0.0,0.0,88,0.00,SCT,SCT,0.00,0.0,WeatherDisplay:10.37,2013-10-03 02:05:00,
2013-10-02 22:10:00,61.5,57.9,30.08,ENE,58,0.0,0.0,88,0.00,SCT,SCT,0.00,0.0,WeatherDisplay:10.37,2013-10-03 02:10:00,
2013-10-02 22:15:00,61.4,57.8,30.08,ENE,58,0.0,0.0,88,0.00,SCT,SCT,0.00,0.0,WeatherDisplay:10.37,2013-10-03 02:15:00,
2013-10-02 22:20:00,61.2,57.6,30.08,ENE,58,0.0,0.0,88,0.00,SCT,SCT,0.00,0.0,WeatherDisplay:10.37,2013-10-03 02:20:00,
2013-10-02 22:25:00,61.1,57.5,30.08,ENE,58,0.0,0.0,88,0.00,SCT,SCT,0.00,0.0,WeatherDisplay:10.37,2013-10-03 02:25:00,
2013-10-02 22:30:00,61.0,57.4,30.09,ENE,58,0.0,0.0,88,0.00,SCT,SCT,0.00,0.0,WeatherDisplay:10.37,2013-10-03 02:30:00,
2013-10-02 22:35:00,60.9,57.3,30.09,ENE,58,0.0,0.0,88,0.00,SCT,SCT,0.00,0.0,WeatherDisplay:10.37,2013-10-03 02:35:00,
2013-10-02 22:40:00,60.7,57.4,30.09,ENE,58,0.0,0.0,89,0.00,SCT,SCT,0.00,0.0,WeatherDisplay:10.37,2013-10-03 02:40:00,
2013-10-02 22:45:00,60.6,57.3,30.09,ENE,58,0.0,0.0,89,0.00,SCT,SCT,0.00,0.0,WeatherDisplay:10.37,2013-10-03 02:45:00,
2013-10-02 22:55:00,60.4,56.8,30.09,ENE,58,0.0,0.0,88,0.00,SCT,SCT,0.00,0.0,WeatherDisplay:10.37,2013-10-03 02:55:00,
2013-10-02 23:00:00,60.2,56.7,30.09,ENE,58,0.0,0.0,88,0.00,SCT,SCT,0.00,0.0,WeatherDisplay:10.37,2013-10-03 03:00:00,
2013-10-02 23:05:00,60.2,56.9,30.09,ENE,58,0.0,0.0,89,0.00,SCT,SCT,0.00,0.0,WeatherDisplay:10.37,2013-10-03 03:05:00,
2013-10-02 23:15:00,60.0,56.8,30.09,ENE,58,0.0,0.0,89,0.00,SCT,SCT,0.00,0.0,WeatherDisplay:10.37,2013-10-03 03:15:00,
2013-10-02 23:20:00,60.0,56.7,30.09,ENE,58,0.0,0.0,89,0.00,SCT,SCT,0.00,0.0,WeatherDisplay:10.37,2013-10-03 03:20:00,
2013-10-02 23:25:00,59.9,56.7,30.10,ENE,58,0.0,0.0,89,0.00,SCT,SCT,0.00,0.0,WeatherDisplay:10.37,2013-10-03 03:25:00,
2013-10-02 23:35:00,59.8,56.6,30.09,ENE,58,0.0,0.0,89,0.00,SCT,SCT,0.00,0.0,WeatherDisplay:10.37,2013-10-03 03:35:00,
2013-10-02 23:45:00,59.7,56.5,30.10,ENE,58,0.0,0.0,89,0.00,SCT,SCT,0.00,0.0,WeatherDisplay:10.37,2013-10-03 03:45:00,
2013-10-02 23:50:00,59.7,56.4,30.10,ENE,58,0.0,0.0,89,0.00,SCT,SCT,0.00,0.0,WeatherDisplay:10.37,2013-10-03 03:50:00,
2013-10-02 23:55:00,59.6,56.4,30.10,ENE,58,0.0,0.0,89,0.00,SCT,SCT,0.00,0.0,WeatherDisplay:10.37,2013-10-03 03:55:00,